Time;durP1;ratioP1;P1;durP2;ratioP2;P2;SDS_P1;SDS_P2;PMS_P1;PMS_P2;Temp;Humidity;BMP_temperature;BMP_pressure;BME280_temperature;BME280_humidity;BME280_pressure;Samples;Min_cycle;Max_cycle;Signal;HPM_P1;HPM_P2
2022/04/08 00:01:47;;;;;;;37.30;5.57;;;;;;;;;;5071297;28;20041;-63
2022/04/08 00:04:52;;;;;;;27.95;5.13;;;;;;;;;;5071549;28;20044;-63
2022/04/08 00:07:56;;;;;;;35.53;5.60;;;;;;;;;;5071150;28;20048;-64
2022/04/08 00:11:00;;;;;;;51.55;17.88;;;;;;;;;;5071227;28;20040;-64
2022/04/08 00:14:05;;;;;;;36.78;6.38;;;;;;;;;;5071082;28;20055;-63
2022/04/08 00:17:09;;;;;;;32.78;4.93;;;;;;;;;;5070930;28;20036;-64
2022/04/08 00:20:13;;;;;;;33.25;5.13;;;;;;;;;;5070199;28;20040;-63
2022/04/08 00:23:36;;;;;;;31.95;4.72;;;;;;;;;;5070931;28;20039;-64
2022/04/08 00:26:42;;;;;;;35.60;4.97;;;;;;;;;;5071184;28;20053;-64
2022/04/08 00:29:46;;;;;;;28.98;5.57;;;;;;;;;;5070278;28;20040;-64
2022/04/08 00:32:51;;;;;;;33.17;5.72;;;;;;;;;;5070938;28;20401;-64
2022/04/08 00:35:55;;;;;;;25.35;4.63;;;;;;;;;;5070805;28;20051;-63
2022/04/08 00:39:00;;;;;;;36.08;4.93;;;;;;;;;;5071098;28;20043;-64
2022/04/08 00:42:06;;;;;;;31.77;4.45;;;;;;;;;;5070464;28;20451;-64
2022/04/08 00:45:11;;;;;;;45.03;5.22;;;;;;;;;;5070216;28;20032;-63
2022/04/08 00:48:15;;;;;;;30.42;4.75;;;;;;;;;;5070727;28;20049;-64
2022/04/08 00:51:21;;;;;;;29.95;5.28;;;;;;;;;;5070819;28;20036;-64
2022/04/08 00:54:25;;;;;;;31.02;5.03;;;;;;;;;;5070361;28;20044;-63
2022/04/08 00:57:33;;;;;;;33.00;4.55;;;;;;;;;;5070803;28;20028;-63
2022/04/08 01:00:38;;;;;;;32.55;4.88;;;;;;;;;;5070462;28;20463;-63
2022/04/08 01:03:43;;;;;;;35.83;5.50;;;;;;;;;;5070678;28;20503;-63
2022/04/08 01:06:47;;;;;;;34.00;5.93;;;;;;;;;;5070052;28;20059;-64
2022/04/08 01:09:52;;;;;;;27.70;4.30;;;;;;;;;;5070571;28;20057;-64
2022/04/08 01:12:56;;;;;;;23.83;4.03;;;;;;;;;;5071129;28;20495;-64
2022/04/08 01:16:00;;;;;;;33.08;4.85;;;;;;;;;;5069555;28;20033;-63
2022/04/08 01:19:05;;;;;;;29.58;5.05;;;;;;;;;;5070291;28;20051;-63
2022/04/08 01:22:10;;;;;;;24.45;4.20;;;;;;;;;;5069797;28;20047;-63
2022/04/08 01:25:14;;;;;;;30.90;4.43;;;;;;;;;;5070143;28;20040;-64
2022/04/08 01:28:19;;;;;;;24.58;4.63;;;;;;;;;;5069362;28;20037;-64
2022/04/08 01:31:24;;;;;;;18.42;4.03;;;;;;;;;;5069983;28;20044;-63
2022/04/08 01:34:28;;;;;;;26.30;4.80;;;;;;;;;;5070003;28;20044;-63
2022/04/08 01:37:32;;;;;;;24.50;5.18;;;;;;;;;;5070195;28;20040;-64
2022/04/08 01:40:37;;;;;;;28.40;5.07;;;;;;;;;;5070602;28;20048;-64
2022/04/08 01:43:41;;;;;;;27.17;4.20;;;;;;;;;;5073944;28;20036;-65
2022/04/08 01:46:45;;;;;;;26.45;4.20;;;;;;;;;;5073517;28;20515;-65
2022/04/08 01:49:51;;;;;;;34.75;4.38;;;;;;;;;;5073783;28;20035;-63
2022/04/08 01:52:55;;;;;;;31.08;4.95;;;;;;;;;;5073507;28;20507;-63
2022/04/08 01:55:59;;;;;;;24.98;4.35;;;;;;;;;;5073796;28;20230;-63
2022/04/08 01:59:03;;;;;;;30.88;4.50;;;;;;;;;;5074027;28;20321;-64
2022/04/08 02:02:08;;;;;;;28.08;4.70;;;;;;;;;;5073966;28;20391;-63
2022/04/08 02:05:12;;;;;;;24.75;3.90;;;;;;;;;;5073774;28;20032;-62
2022/04/08 02:08:17;;;;;;;25.25;3.92;;;;;;;;;;5073288;28;20048;-63
2022/04/08 02:11:21;;;;;;;24.25;3.63;;;;;;;;;;5072394;28;20396;-63
2022/04/08 02:14:25;;;;;;;23.88;4.05;;;;;;;;;;5073416;28;20041;-63
2022/04/08 02:17:31;;;;;;;17.25;4.32;;;;;;;;;;5073190;28;20033;-63
2022/04/08 02:20:35;;;;;;;26.77;3.60;;;;;;;;;;5073159;28;20381;-64
2022/04/08 02:23:40;;;;;;;27.70;4.20;;;;;;;;;;5073389;28;20504;-63
2022/04/08 02:26:44;;;;;;;16.92;3.88;;;;;;;;;;5073030;28;20059;-63
2022/04/08 02:29:48;;;;;;;21.13;4.43;;;;;;;;;;5072917;28;20049;-63
2022/04/08 02:32:53;;;;;;;27.77;4.38;;;;;;;;;;5072939;28;20499;-63
2022/04/08 02:35:57;;;;;;;34.42;3.72;;;;;;;;;;5072830;28;20052;-63
2022/04/08 02:39:02;;;;;;;20.70;4.07;;;;;;;;;;5073025;28;20036;-63
2022/04/08 02:42:06;;;;;;;29.98;4.38;;;;;;;;;;5073221;28;20376;-63
2022/04/08 02:45:11;;;;;;;23.52;3.30;;;;;;;;;;5072675;28;20057;-63
2022/04/08 02:48:15;;;;;;;22.60;4.40;;;;;;;;;;5073241;28;20042;-63
2022/04/08 02:51:20;;;;;;;25.33;4.00;;;;;;;;;;5072690;28;20036;-63
2022/04/08 02:54:24;;;;;;;24.23;4.10;;;;;;;;;;5071763;28;20052;-63
2022/04/08 02:57:28;;;;;;;25.45;4.93;;;;;;;;;;5072379;28;20603;-64
2022/04/08 03:00:33;;;;;;;27.23;5.28;;;;;;;;;;5072437;28;20049;-64
2022/04/08 03:03:37;;;;;;;21.77;4.30;;;;;;;;;;5072221;28;20036;-64
2022/04/08 03:06:41;;;;;;;23.33;3.75;;;;;;;;;;5072117;28;20049;-64
2022/04/08 03:09:46;;;;;;;27.00;4.68;;;;;;;;;;5072233;28;20111;-64
2022/04/08 03:12:50;;;;;;;25.70;4.25;;;;;;;;;;5072141;28;20044;-64
2022/04/08 03:15:54;;;;;;;20.15;3.90;;;;;;;;;;5071866;28;20053;-64
2022/04/08 03:18:58;;;;;;;19.77;3.60;;;;;;;;;;5072312;28;20032;-64
2022/04/08 03:22:03;;;;;;;30.50;4.25;;;;;;;;;;5072311;28;20037;-64
2022/04/08 03:25:07;;;;;;;22.27;3.50;;;;;;;;;;5071750;28;20032;-64
2022/04/08 03:28:11;;;;;;;25.40;3.17;;;;;;;;;;5072472;28;20048;-64
2022/04/08 03:31:15;;;;;;;23.10;3.85;;;;;;;;;;5071833;28;20043;-62
2022/04/08 03:34:19;;;;;;;20.88;3.35;;;;;;;;;;5071727;28;20044;-64
2022/04/08 03:37:25;;;;;;;17.60;3.10;;;;;;;;;;5071646;28;20401;-64
2022/04/08 03:40:29;;;;;;;27.48;4.10;;;;;;;;;;5071625;28;20040;-64
2022/04/08 03:43:34;;;;;;;21.73;4.15;;;;;;;;;;5071510;28;20036;-64
2022/04/08 03:46:41;;;;;;;16.15;3.70;;;;;;;;;;5071695;28;20536;-64
2022/04/08 03:49:45;;;;;;;16.33;3.22;;;;;;;;;;5071622;28;20044;-64
2022/04/08 03:52:49;;;;;;;19.35;3.25;;;;;;;;;;5071497;28;20044;-64
2022/04/08 03:55:54;;;;;;;14.85;2.78;;;;;;;;;;5071754;28;20040;-64
2022/04/08 03:58:58;;;;;;;18.65;3.40;;;;;;;;;;5071598;28;20028;-64
2022/04/08 04:02:05;;;;;;;22.98;3.55;;;;;;;;;;5071151;28;20041;-64
2022/04/08 04:05:10;;;;;;;17.98;3.70;;;;;;;;;;5070947;28;20037;-64
2022/04/08 04:08:18;;;;;;;13.02;2.83;;;;;;;;;;5071060;28;20045;-64
2022/04/08 04:11:22;;;;;;;26.10;2.88;;;;;;;;;;5071448;28;20044;-64
2022/04/08 04:14:27;;;;;;;16.92;2.72;;;;;;;;;;5071069;28;20048;-64
2022/04/08 04:17:31;;;;;;;12.07;2.65;;;;;;;;;;5070976;28;20033;-63
2022/04/08 04:20:36;;;;;;;19.95;3.38;;;;;;;;;;5071010;28;20045;-64
2022/04/08 04:23:40;;;;;;;26.77;3.65;;;;;;;;;;5071225;28;20033;-64
2022/04/08 04:26:44;;;;;;;15.90;3.95;;;;;;;;;;5070782;28;20043;-63
2022/04/08 04:29:49;;;;;;;21.15;3.80;;;;;;;;;;5071131;28;20401;-63
2022/04/08 04:32:55;;;;;;;21.95;3.85;;;;;;;;;;5070697;28;20033;-63
2022/04/08 04:35:59;;;;;;;20.15;3.72;;;;;;;;;;5070970;28;20040;-63
2022/04/08 04:39:04;;;;;;;25.20;3.92;;;;;;;;;;5071153;28;20047;-64
2022/04/08 04:42:08;;;;;;;23.63;3.90;;;;;;;;;;5070852;28;20047;-64
2022/04/08 04:45:13;;;;;;;24.45;4.82;;;;;;;;;;5070886;28;20038;-64
2022/04/08 04:48:18;;;;;;;19.13;5.00;;;;;;;;;;5070730;28;20041;-64
2022/04/08 04:51:22;;;;;;;25.77;4.65;;;;;;;;;;5071057;28;20454;-63
2022/04/08 04:54:27;;;;;;;22.52;4.07;;;;;;;;;;5070501;28;20053;-64
2022/04/08 04:57:31;;;;;;;16.10;3.67;;;;;;;;;;5070800;28;20039;-63
2022/04/08 05:00:35;;;;;;;15.43;4.10;;;;;;;;;;5070688;28;20052;-63
2022/04/08 05:03:40;;;;;;;20.70;4.00;;;;;;;;;;5069754;28;20094;-64
2022/04/08 05:06:44;;;;;;;15.70;3.50;;;;;;;;;;5070355;28;20055;-65
2022/04/08 05:09:49;;;;;;;22.27;3.33;;;;;;;;;;5071279;28;20461;-64
2022/04/08 05:12:53;;;;;;;20.85;4.10;;;;;;;;;;5070546;28;20052;-64
2022/04/08 05:15:57;;;;;;;20.17;4.47;;;;;;;;;;5071147;28;20423;-64
2022/04/08 05:19:01;;;;;;;15.77;2.97;;;;;;;;;;5074450;28;20032;-65
2022/04/08 05:22:06;;;;;;;22.05;3.95;;;;;;;;;;5074146;28;20055;-64
2022/04/08 05:25:10;;;;;;;19.23;3.60;;;;;;;;;;5073989;28;20405;-63
2022/04/08 05:28:15;;;;;;;24.65;3.92;;;;;;;;;;5073355;28;20059;-64
2022/04/08 05:31:19;;;;;;;21.40;3.20;;;;;;;;;;5073912;28;20064;-64
2022/04/08 05:34:24;;;;;;;25.98;5.70;;;;;;;;;;5073803;28;20052;-62
2022/04/08 05:37:29;;;;;;;29.02;6.05;;;;;;;;;;5073317;28;20389;-64
2022/04/08 05:40:33;;;;;;;31.42;6.97;;;;;;;;;;5073911;28;20242;-64
2022/04/08 05:43:37;;;;;;;33.53;8.13;;;;;;;;;;5073711;28;20051;-63
2022/04/08 05:46:42;;;;;;;39.17;6.65;;;;;;;;;;5073987;28;20043;-63
2022/04/08 05:49:46;;;;;;;41.38;7.93;;;;;;;;;;5073424;28;20033;-63
2022/04/08 05:52:52;;;;;;;27.40;6.45;;;;;;;;;;5072711;28;20587;-64
2022/04/08 05:55:56;;;;;;;28.10;4.57;;;;;;;;;;5073459;28;20056;-63
2022/04/08 05:59:00;;;;;;;33.70;6.00;;;;;;;;;;5073579;28;20040;-62
2022/04/08 06:02:05;;;;;;;26.00;4.80;;;;;;;;;;5073792;28;20044;-65
2022/04/08 06:05:10;;;;;;;18.88;3.95;;;;;;;;;;5073451;28;20416;-63
2022/04/08 06:08:14;;;;;;;30.83;4.90;;;;;;;;;;5060812;28;20049;-63
2022/04/08 06:11:18;;;;;;;21.50;4.55;;;;;;;;;;5073572;28;20036;-63
2022/04/08 06:14:23;;;;;;;26.10;4.50;;;;;;;;;;5072976;28;20047;-64
2022/04/08 06:17:35;;;;;;;19.65;4.22;;;;;;;;;;5073088;28;20040;-64
2022/04/08 06:20:39;;;;;;;25.00;4.45;;;;;;;;;;5073290;28;20036;-64
2022/04/08 06:23:45;;;;;;;27.10;5.45;;;;;;;;;;5073160;28;20040;-64
2022/04/08 06:26:49;;;;;;;35.78;6.45;;;;;;;;;;5073219;28;20114;-65
2022/04/08 06:29:54;;;;;;;27.73;4.97;;;;;;;;;;5074684;28;20043;-64
2022/04/08 06:32:58;;;;;;;802.25;68.20;;;;;;;;;;5073419;28;20044;-65
2022/04/08 06:36:03;;;;;;;41.50;5.68;;;;;;;;;;5073468;28;20051;-64
2022/04/08 06:39:07;;;;;;;29.65;4.10;;;;;;;;;;5073013;28;20052;-63
2022/04/08 06:42:11;;;;;;;19.88;4.05;;;;;;;;;;5072833;28;20043;-66
2022/04/08 06:45:15;;;;;;;18.00;3.75;;;;;;;;;;5072576;28;20102;-65
2022/04/08 06:48:20;;;;;;;27.15;4.93;;;;;;;;;;5072519;28;20275;-67
2022/04/08 06:51:24;;;;;;;20.17;4.03;;;;;;;;;;5072496;28;20044;-66
2022/04/08 06:54:29;;;;;;;23.42;4.40;;;;;;;;;;5072596;28;20058;-66
2022/04/08 06:57:33;;;;;;;22.17;4.72;;;;;;;;;;5072718;28;20503;-65
2022/04/08 07:00:37;;;;;;;20.75;4.70;;;;;;;;;;5072616;28;20127;-65
2022/04/08 07:03:42;;;;;;;28.55;4.13;;;;;;;;;;5073123;28;20036;-64
2022/04/08 07:06:46;;;;;;;23.33;4.38;;;;;;;;;;5072568;28;20361;-64
2022/04/08 07:09:52;;;;;;;20.95;5.05;;;;;;;;;;5072660;28;20036;-64
2022/04/08 07:12:56;;;;;;;24.33;4.28;;;;;;;;;;5071775;28;20033;-66
2022/04/08 07:16:00;;;;;;;18.55;4.25;;;;;;;;;;5071037;28;20059;-65
2022/04/08 07:19:05;;;;;;;20.42;3.45;;;;;;;;;;5072120;28;20028;-63
2022/04/08 07:22:09;;;;;;;17.25;3.53;;;;;;;;;;5070969;28;20036;-64
2022/04/08 07:25:14;;;;;;;19.02;4.38;;;;;;;;;;5072235;28;20048;-65
2022/04/08 07:28:18;;;;;;;17.40;3.40;;;;;;;;;;5072189;28;20039;-68
2022/04/08 07:31:22;;;;;;;18.73;3.70;;;;;;;;;;5071361;28;20036;-67
2022/04/08 07:34:27;;;;;;;19.73;3.58;;;;;;;;;;5071633;28;20049;-66
2022/04/08 07:37:31;;;;;;;24.95;4.45;;;;;;;;;;5071617;28;20037;-67
2022/04/08 07:40:36;;;;;;;21.08;3.88;;;;;;;;;;5071206;28;20041;-65
2022/04/08 07:43:40;;;;;;;19.83;4.43;;;;;;;;;;5071385;28;20036;-65
2022/04/08 07:46:45;;;;;;;18.80;3.47;;;;;;;;;;5071532;28;20369;-66
2022/04/08 07:49:49;;;;;;;19.40;3.92;;;;;;;;;;5071690;28;20036;-66
2022/04/08 07:52:53;;;;;;;22.15;4.30;;;;;;;;;;5071329;28;20045;-66
2022/04/08 07:55:58;;;;;;;20.20;4.13;;;;;;;;;;5071350;28;20037;-66
2022/04/08 07:59:03;;;;;;;19.30;4.00;;;;;;;;;;5071637;28;20455;-66
2022/04/08 08:02:07;;;;;;;18.27;4.15;;;;;;;;;;5071049;28;20039;-67
2022/04/08 08:05:12;;;;;;;16.33;3.53;;;;;;;;;;5071113;28;20400;-67
2022/04/08 08:08:16;;;;;;;20.05;3.53;;;;;;;;;;5070978;28;20508;-67
2022/04/08 08:11:21;;;;;;;14.32;3.58;;;;;;;;;;5070996;28;20037;-67
2022/04/08 08:14:26;;;;;;;18.75;3.90;;;;;;;;;;5070394;28;20048;-66
2022/04/08 08:17:30;;;;;;;27.25;4.20;;;;;;;;;;5071193;28;20040;-65
2022/04/08 08:20:35;;;;;;;19.98;4.45;;;;;;;;;;5070083;28;20048;-65
2022/04/08 08:23:39;;;;;;;21.60;4.45;;;;;;;;;;5071157;28;20063;-66
2022/04/08 08:26:44;;;;;;;25.50;5.80;;;;;;;;;;5070218;28;20044;-67
2022/04/08 08:29:48;;;;;;;26.42;4.03;;;;;;;;;;5071017;28;20044;-66
2022/04/08 08:32:52;;;;;;;21.83;3.90;;;;;;;;;;5071043;28;20041;-67
2022/04/08 08:35:57;;;;;;;18.42;3.78;;;;;;;;;;5070902;28;20048;-71
2022/04/08 08:39:01;;;;;;;17.95;4.13;;;;;;;;;;5070813;28;20033;-70
2022/04/08 08:42:06;;;;;;;27.10;4.90;;;;;;;;;;5070602;28;20396;-69
2022/04/08 08:45:12;;;;;;;19.15;4.20;;;;;;;;;;5070692;28;20032;-71
2022/04/08 08:48:16;;;;;;;19.35;3.40;;;;;;;;;;5070671;28;20036;-68
2022/04/08 08:51:22;;;;;;;41.22;5.57;;;;;;;;;;5071522;28;20036;-72
2022/04/08 08:54:26;;;;;;;21.58;3.53;;;;;;;;;;5074648;28;20051;-72
2022/04/08 08:57:30;;;;;;;21.02;4.55;;;;;;;;;;5074744;28;20036;-73
2022/04/08 09:00:35;;;;;;;14.52;4.53;;;;;;;;;;5074817;28;20524;-71
2022/04/08 09:03:42;;;;;;;21.02;3.90;;;;;;;;;;5075153;28;20357;-72
2022/04/08 09:06:46;;;;;;;15.45;3.38;;;;;;;;;;5074573;28;20045;-76
2022/04/08 09:09:56;;;;;;;20.48;3.95;;;;;;;;;;5075005;28;20400;-70
2022/04/08 09:13:01;;;;;;;19.27;3.40;;;;;;;;;;5074430;28;20033;-69
2022/04/08 09:16:06;;;;;;;17.15;3.58;;;;;;;;;;5074567;28;20415;-73
2022/04/08 09:19:17;;;;;;;19.25;3.72;;;;;;;;;;5062229;28;20044;-69
2022/04/08 09:22:25;;;;;;;13.70;2.75;;;;;;;;;;5073345;28;20062;-71
2022/04/08 09:25:29;;;;;;;13.70;3.10;;;;;;;;;;5073489;28;20041;-69
2022/04/08 09:28:35;;;;;;;16.80;3.95;;;;;;;;;;5074131;28;20060;-73
2022/04/08 09:31:39;;;;;;;13.25;2.95;;;;;;;;;;5073151;28;20497;-74
2022/04/08 09:34:43;;;;;;;15.80;3.45;;;;;;;;;;5061875;28;20045;-70
2022/04/08 09:38:01;;;;;;;13.80;3.20;;;;;;;;;;5074582;28;20048;-68
2022/04/08 09:41:08;;;;;;;20.73;3.10;;;;;;;;;;5073761;28;20048;-69
2022/04/08 09:44:14;;;;;;;17.83;3.10;;;;;;;;;;5061430;28;20568;-71
2022/04/08 09:47:18;;;;;;;16.58;3.85;;;;;;;;;;5072726;28;20068;-69
2022/04/08 09:50:23;;;;;;;16.02;3.10;;;;;;;;;;5073692;28;20297;-71
2022/04/08 09:53:28;;;;;;;17.75;3.63;;;;;;;;;;5061117;28;20021;-71
2022/04/08 09:56:34;;;;;;;21.30;3.13;;;;;;;;;;5073601;28;20040;-71
2022/04/08 09:59:39;;;;;;;15.82;3.05;;;;;;;;;;5073858;28;20036;-71
2022/04/08 10:02:48;;;;;;;13.40;3.47;;;;;;;;;;5073146;28;20399;-71
2022/04/08 10:05:53;;;;;;;20.50;4.57;;;;;;;;;;5072802;28;20476;-69
2022/04/08 10:13:41;;;;;;;11.85;3.30;;;;;;;;;;5076892;28;20032;-68
2022/04/08 10:16:51;;;;;;;13.70;3.60;;;;;;;;;;5073175;28;20036;-68
2022/04/08 10:20:15;;;;;;;15.68;3.72;;;;;;;;;;5072515;28;20036;-70
2022/04/08 10:23:22;;;;;;;16.23;3.20;;;;;;;;;;5072226;28;20028;-70
2022/04/08 10:26:26;;;;;;;21.63;3.92;;;;;;;;;;5072853;28;20048;-70
2022/04/08 10:29:34;;;;;;;24.38;4.43;;;;;;;;;;5072908;28;20357;-70
2022/04/08 10:32:39;;;;;;;14.32;2.88;;;;;;;;;;5072033;28;20047;-69
2022/04/08 10:35:55;;;;;;;17.98;3.88;;;;;;;;;;5071702;28;20055;-70
2022/04/08 10:39:13;;;;;;;14.77;2.90;;;;;;;;;;5073211;28;20586;-68
2022/04/08 10:42:21;;;;;;;13.45;3.28;;;;;;;;;;5072898;28;20059;-68
2022/04/08 10:45:26;;;;;;;15.55;4.35;;;;;;;;;;5072788;28;20046;-68
2022/04/08 10:48:34;;;;;;;14.95;4.25;;;;;;;;;;5072647;28;20039;-67
2022/04/08 10:51:44;;;;;;;23.45;3.70;;;;;;;;;;5072769;28;20487;-71
2022/04/08 10:54:49;;;;;;;22.90;3.95;;;;;;;;;;5071719;28;20044;-71
2022/04/08 10:57:57;;;;;;;18.45;3.60;;;;;;;;;;5072517;28;20143;-68
2022/04/08 11:01:22;;;;;;;15.90;4.07;;;;;;;;;;5071703;28;20047;-70
2022/04/08 11:04:28;;;;;;;19.27;4.25;;;;;;;;;;5071382;28;20044;-67
2022/04/08 11:07:33;;;;;;;26.67;6.93;;;;;;;;;;5072283;28;20053;-68
2022/04/08 11:10:37;;;;;;;17.48;3.72;;;;;;;;;;5072397;28;20047;-67
2022/04/08 11:13:44;;;;;;;22.58;3.88;;;;;;;;;;5071206;28;20425;-68
2022/04/08 11:16:50;;;;;;;14.40;3.63;;;;;;;;;;5072202;28;20052;-68
2022/04/08 11:19:54;;;;;;;18.85;4.15;;;;;;;;;;5072093;28;20032;-67
2022/04/08 11:22:58;;;;;;;17.55;4.03;;;;;;;;;;5072098;28;20047;-70
2022/04/08 11:26:11;;;;;;;25.20;4.82;;;;;;;;;;5071752;28;20040;-70
2022/04/08 11:29:17;;;;;;;17.77;3.60;;;;;;;;;;5072216;28;20047;-68
2022/04/08 11:32:29;;;;;;;21.95;3.95;;;;;;;;;;5071792;28;20044;-69
2022/04/08 11:35:33;;;;;;;24.38;3.85;;;;;;;;;;5071712;28;20048;-70
2022/04/08 11:38:38;;;;;;;21.33;3.30;;;;;;;;;;5071964;28;20036;-68
2022/04/08 11:41:42;;;;;;;23.60;4.97;;;;;;;;;;5071602;28;20051;-68
2022/04/08 11:44:46;;;;;;;22.27;4.15;;;;;;;;;;5071543;28;20043;-70
2022/04/08 11:47:51;;;;;;;21.95;3.80;;;;;;;;;;5071535;28;20056;-67
2022/04/08 11:51:04;;;;;;;19.00;3.92;;;;;;;;;;5071486;28;20037;-68
2022/04/08 11:54:09;;;;;;;21.98;4.60;;;;;;;;;;5071296;28;20314;-67
2022/04/08 11:57:13;;;;;;;27.85;4.90;;;;;;;;;;5071544;28;20537;-70
2022/04/08 12:00:23;;;;;;;16.50;3.35;;;;;;;;;;5071361;28;20036;-70
2022/04/08 12:03:28;;;;;;;16.23;3.67;;;;;;;;;;5058729;28;20049;-70
2022/04/08 12:06:35;;;;;;;14.07;3.70;;;;;;;;;;5071036;28;20044;-70
2022/04/08 12:09:40;;;;;;;16.67;3.50;;;;;;;;;;5071254;28;20202;-69
2022/04/08 12:12:45;;;;;;;18.42;3.67;;;;;;;;;;5071117;28;20044;-69
2022/04/08 12:15:50;;;;;;;20.73;4.32;;;;;;;;;;5070860;28;20056;-69
2022/04/08 12:18:55;;;;;;;25.98;5.25;;;;;;;;;;5070935;28;20041;-69
2022/04/08 12:22:00;;;;;;;22.17;4.25;;;;;;;;;;5070670;28;20126;-69
2022/04/08 12:25:05;;;;;;;20.85;4.80;;;;;;;;;;5070908;28;20400;-70
2022/04/08 12:28:12;;;;;;;17.90;3.53;;;;;;;;;;5070329;28;20037;-70
2022/04/08 12:31:21;;;;;;;19.73;4.82;;;;;;;;;;5070973;28;20029;-68
2022/04/08 12:34:25;;;;;;;22.88;3.95;;;;;;;;;;5070560;28;20408;-70
2022/04/08 12:37:30;;;;;;;19.92;4.05;;;;;;;;;;5070304;28;20044;-69
2022/04/08 12:40:34;;;;;;;23.92;4.00;;;;;;;;;;5070596;28;20040;-70
2022/04/08 12:43:40;;;;;;;27.52;5.00;;;;;;;;;;5069894;28;20047;-72
2022/04/08 12:46:44;;;;;;;20.27;5.28;;;;;;;;;;5070966;28;20044;-69
2022/04/08 12:49:49;;;;;;;21.10;4.00;;;;;;;;;;5070982;28;20045;-69
2022/04/08 12:52:53;;;;;;;21.73;5.13;;;;;;;;;;5070709;28;20037;-69
2022/04/08 12:55:57;;;;;;;27.95;5.55;;;;;;;;;;5069525;28;20048;-70
2022/04/08 12:59:01;;;;;;;27.73;4.57;;;;;;;;;;5070829;28;20033;-70
2022/04/08 13:02:06;;;;;;;20.10;4.47;;;;;;;;;;5070583;28;20502;-71
2022/04/08 13:05:10;;;;;;;23.90;5.40;;;;;;;;;;5070422;28;20041;-71
2022/04/08 13:08:14;;;;;;;20.83;4.63;;;;;;;;;;5070428;28;20056;-70
2022/04/08 13:11:19;;;;;;;22.02;3.92;;;;;;;;;;5070824;28;20051;-69
2022/04/08 13:14:23;;;;;;;24.10;5.03;;;;;;;;;;5070464;28;20151;-69
2022/04/08 13:17:27;;;;;;;19.63;4.07;;;;;;;;;;5068946;28;20051;-71
2022/04/08 13:20:32;;;;;;;14.32;3.67;;;;;;;;;;5069496;28;20049;-69
2022/04/08 13:23:36;;;;;;;19.88;4.43;;;;;;;;;;5070171;28;20041;-71
2022/04/08 13:26:40;;;;;;;21.40;5.72;;;;;;;;;;5069604;28;20041;-69
2022/04/08 13:29:48;;;;;;;24.27;5.10;;;;;;;;;;5070151;28;20501;-71
2022/04/08 13:32:52;;;;;;;19.17;4.40;;;;;;;;;;5070316;28;20400;-70
2022/04/08 13:35:57;;;;;;;15.50;3.20;;;;;;;;;;5069416;28;20059;-69
2022/04/08 13:39:02;;;;;;;25.42;5.43;;;;;;;;;;5074261;28;20043;-70
2022/04/08 13:42:06;;;;;;;19.15;3.55;;;;;;;;;;5073954;28;20040;-69
2022/04/08 13:45:10;;;;;;;20.23;4.00;;;;;;;;;;5073520;28;20043;-68
2022/04/08 13:48:15;;;;;;;18.70;3.85;;;;;;;;;;5073909;28;20068;-69
2022/04/08 13:51:19;;;;;;;23.02;3.70;;;;;;;;;;5073949;28;20055;-71
2022/04/08 13:54:23;;;;;;;18.02;3.42;;;;;;;;;;5073186;28;20299;-72
2022/04/08 13:57:27;;;;;;;23.35;3.97;;;;;;;;;;5073443;28;20040;-69
2022/04/08 14:00:32;;;;;;;19.45;3.92;;;;;;;;;;5073608;28;20060;-71
2022/04/08 14:03:36;;;;;;;17.88;3.80;;;;;;;;;;5073398;28;20040;-71
2022/04/08 14:06:41;;;;;;;16.13;3.45;;;;;;;;;;5072825;28;20249;-69
2022/04/08 14:09:45;;;;;;;15.48;4.15;;;;;;;;;;5073641;28;20392;-69
2022/04/08 14:12:50;;;;;;;22.38;4.15;;;;;;;;;;5072346;28;20044;-69
2022/04/08 14:15:54;;;;;;;19.63;4.78;;;;;;;;;;5073071;28;20424;-72
2022/04/08 14:18:58;;;;;;;23.52;4.75;;;;;;;;;;5073326;28;20025;-70
2022/04/08 14:22:03;;;;;;;27.08;4.22;;;;;;;;;;5072629;28;20057;-69
2022/04/08 14:25:08;;;;;;;19.70;4.47;;;;;;;;;;5072956;28;20116;-70
2022/04/08 14:28:12;;;;;;;21.65;5.45;;;;;;;;;;5073212;28;20044;-71
2022/04/08 14:31:18;;;;;;;22.40;5.32;;;;;;;;;;5072572;28;20033;-67
2022/04/08 14:34:22;;;;;;;16.60;3.55;;;;;;;;;;5072965;28;20032;-71
2022/04/08 14:37:27;;;;;;;22.38;4.00;;;;;;;;;;5072775;28;20040;-68
2022/04/08 14:40:31;;;;;;;27.00;5.03;;;;;;;;;;5073153;28;20472;-72
2022/04/08 14:43:36;;;;;;;21.30;5.03;;;;;;;;;;5071644;28;20052;-71
2022/04/08 14:46:42;;;;;;;21.77;5.15;;;;;;;;;;5072841;28;20036;-69
2022/04/08 14:49:46;;;;;;;21.40;5.35;;;;;;;;;;5070462;28;20040;-70
2022/04/08 14:52:51;;;;;;;30.05;7.38;;;;;;;;;;5072260;28;20143;-68
2022/04/08 14:55:56;;;;;;;19.33;4.70;;;;;;;;;;5072213;28;20045;-68
2022/04/08 14:59:00;;;;;;;25.98;6.93;;;;;;;;;;5071801;28;20041;-69
2022/04/08 15:02:04;;;;;;;27.63;5.20;;;;;;;;;;5072078;28;20083;-67
2022/04/08 15:05:09;;;;;;;27.33;5.60;;;;;;;;;;5071585;28;20199;-69
2022/04/08 15:08:13;;;;;;;21.35;5.55;;;;;;;;;;5072153;28;20040;-69
2022/04/08 15:11:18;;;;;;;18.83;4.00;;;;;;;;;;5072531;28;20043;-70
2022/04/08 15:14:22;;;;;;;26.58;5.00;;;;;;;;;;5071588;28;20052;-69
2022/04/08 15:17:27;;;;;;;46.65;26.85;;;;;;;;;;5071529;28;20395;-69
2022/04/08 15:20:31;;;;;;;34.03;5.45;;;;;;;;;;5070455;28;20040;-69
2022/04/08 15:23:36;;;;;;;31.25;5.82;;;;;;;;;;5071725;28;20301;-69
2022/04/08 15:26:40;;;;;;;27.65;4.97;;;;;;;;;;5071865;28;20151;-68
2022/04/08 15:29:45;;;;;;;27.65;4.78;;;;;;;;;;5071658;28;20398;-69
2022/04/08 15:32:49;;;;;;;23.15;5.10;;;;;;;;;;5059269;28;20044;-69
2022/04/08 15:35:53;;;;;;;23.77;4.47;;;;;;;;;;5071420;28;20052;-67
2022/04/08 15:38:58;;;;;;;33.00;6.20;;;;;;;;;;5071506;28;20346;-68
2022/04/08 15:42:03;;;;;;;27.80;4.88;;;;;;;;;;5071092;28;20040;-69
2022/04/08 15:45:07;;;;;;;22.70;7.45;;;;;;;;;;5071271;28;20361;-70
2022/04/08 15:48:11;;;;;;;26.92;5.97;;;;;;;;;;5070764;28;20043;-68
2022/04/08 15:51:16;;;;;;;29.48;5.95;;;;;;;;;;5071188;28;20032;-69
2022/04/08 15:54:20;;;;;;;55.45;10.38;;;;;;;;;;5070999;28;20045;-68
2022/04/08 15:57:25;;;;;;;27.38;5.57;;;;;;;;;;5071127;28;20059;-68
2022/04/08 16:00:30;;;;;;;23.60;4.57;;;;;;;;;;5070532;28;20043;-70
2022/04/08 16:03:34;;;;;;;37.20;6.10;;;;;;;;;;5071076;28;20420;-69
2022/04/08 16:06:38;;;;;;;26.67;4.75;;;;;;;;;;5071174;28;20044;-71
2022/04/08 16:09:42;;;;;;;26.13;4.65;;;;;;;;;;5071282;28;20048;-71
2022/04/08 16:12:47;;;;;;;30.58;5.05;;;;;;;;;;5070800;28;20369;-67
2022/04/08 16:15:52;;;;;;;24.58;5.60;;;;;;;;;;5070815;28;20040;-68
2022/04/08 16:18:56;;;;;;;28.83;5.55;;;;;;;;;;5070867;28;20049;-69
2022/04/08 16:22:00;;;;;;;28.95;5.47;;;;;;;;;;5071002;28;20380;-69
2022/04/08 16:25:05;;;;;;;29.15;5.65;;;;;;;;;;5071011;28;20044;-71
2022/04/08 16:28:09;;;;;;;28.88;6.05;;;;;;;;;;5071189;28;20040;-70
2022/04/08 16:31:13;;;;;;;27.70;5.57;;;;;;;;;;5070747;28;20040;-70
2022/04/08 16:34:18;;;;;;;24.70;5.45;;;;;;;;;;5070551;28;20052;-68
2022/04/08 16:37:22;;;;;;;30.17;5.13;;;;;;;;;;5070656;28;20542;-71
2022/04/08 16:40:26;;;;;;;25.48;5.47;;;;;;;;;;5070612;28;20036;-70
2022/04/08 16:43:31;;;;;;;22.98;5.07;;;;;;;;;;5070727;28;20044;-71
2022/04/08 16:46:35;;;;;;;18.73;5.25;;;;;;;;;;5069676;28;20044;-66
2022/04/08 16:49:40;;;;;;;22.25;5.82;;;;;;;;;;5070545;28;20044;-67
2022/04/08 16:52:44;;;;;;;32.38;6.63;;;;;;;;;;5070645;28;20047;-68
2022/04/08 16:55:49;;;;;;;34.78;5.97;;;;;;;;;;5069287;28;20048;-67
2022/04/08 16:58:54;;;;;;;32.50;7.72;;;;;;;;;;5070668;28;20041;-69
2022/04/08 17:01:58;;;;;;;33.83;6.72;;;;;;;;;;5070215;28;20043;-67
2022/04/08 17:05:04;;;;;;;30.35;6.25;;;;;;;;;;5069977;28;20051;-66
2022/04/08 17:08:08;;;;;;;31.55;6.43;;;;;;;;;;5070132;28;20051;-66
2022/04/08 17:11:13;;;;;;;25.70;5.70;;;;;;;;;;5070347;28;20040;-68
2022/04/08 17:14:17;;;;;;;32.70;6.68;;;;;;;;;;5074394;28;20037;-68
2022/04/08 17:17:22;;;;;;;31.23;6.07;;;;;;;;;;5074238;28;20041;-66
2022/04/08 17:20:26;;;;;;;33.50;6.43;;;;;;;;;;5073565;28;20502;-69
2022/04/08 17:23:31;;;;;;;22.80;5.60;;;;;;;;;;5074276;28;20055;-65
2022/04/08 17:26:36;;;;;;;31.10;6.65;;;;;;;;;;5074402;28;20049;-67
2022/04/08 17:29:40;;;;;;;30.15;5.95;;;;;;;;;;5073130;28;20036;-67
2022/04/08 17:32:45;;;;;;;29.52;7.68;;;;;;;;;;5074212;28;20040;-68
2022/04/08 17:35:49;;;;;;;30.30;6.32;;;;;;;;;;5072883;28;20044;-67
2022/04/08 17:38:53;;;;;;;32.80;6.63;;;;;;;;;;5074049;28;20389;-67
2022/04/08 17:41:58;;;;;;;34.83;7.43;;;;;;;;;;5072628;28;20053;-65
2022/04/08 17:45:06;;;;;;;38.78;7.65;;;;;;;;;;5072775;28;20033;-68
2022/04/08 17:48:10;;;;;;;37.88;6.80;;;;;;;;;;5073138;28;20289;-70
2022/04/08 17:51:15;;;;;;;29.73;5.60;;;;;;;;;;5049600;28;20037;-69
2022/04/08 17:54:19;;;;;;;28.85;6.25;;;;;;;;;;5073148;28;20039;-68
2022/04/08 17:57:23;;;;;;;37.85;6.35;;;;;;;;;;5073268;28;20075;-69
2022/04/08 18:00:28;;;;;;;40.53;7.78;;;;;;;;;;5073677;28;20044;-69
2022/04/08 18:03:33;;;;;;;34.78;8.10;;;;;;;;;;5073091;28;20040;-68
2022/04/08 18:06:37;;;;;;;43.53;12.00;;;;;;;;;;5073174;28;20033;-69
2022/04/08 18:09:41;;;;;;;42.60;10.38;;;;;;;;;;5072391;28;20071;-69
2022/04/08 18:12:46;;;;;;;51.25;11.27;;;;;;;;;;5072924;28;20043;-69
2022/04/08 18:15:50;;;;;;;47.50;10.30;;;;;;;;;;5072914;28;20127;-69